»·PEaware :: N787SP KSNA-KBUR

N787SP :: KSNA-KBUR

FLIGHT INFORMATION

Flight Status: Arrived
Operator: Privately registered:
United States
More flights under this callsign
Pilot: Anonymous 17765 (17765)
Aircraft: CESSNA 172 SKYHAWK
(C172)
More flights by this aircraft type
Origin: KSNA John Wayne-Orange Co
United States
Destination: KBUR Bob Hope-Burbank
United States
More flights between these airports :: More routes between these airports
Route: +SLI V23 POPPR SMO125R SMO SMO113R SILEX
File this flight plan on PilotEdge
Remarks: Intend I-3
Altitude:
(Current/Filed)
4,000ft
Speed:
(Current/Filed)
115kts
Departed: 08-Jan-18 07:49 PM
Arrived: 08-Jan-18 09:08 PM
Distance/Time
Traveled:
40nm/1:19
Distance/Time
To Go:
Arrived

Flight Plot

Page will automatically refresh every two minutes.

Flight plan parsing failed; only flown route is shown


Map Options




Map Legend


Flown Route
Filed Route
Departure Airport
Arrival Airport
Navaid (VOR, NDB)
Fix

Horizontal Profiles

Position Reports

Time Latitude Longitude Heading Altitude Ground
Speed
08-Jan-18 19:41 33.676060 -117.871295 218 60ft 0kts
08-Jan-18 19:42 33.676060 -117.871295 218 60ft 0kts
08-Jan-18 19:43 33.676060 -117.871295 218 60ft 0kts
08-Jan-18 19:44 33.676060 -117.871295 218 60ft 0kts
08-Jan-18 19:45 33.676060 -117.871295 218 60ft 0kts
08-Jan-18 19:46 33.676060 -117.871295 218 60ft 0kts
08-Jan-18 19:47 33.676059 -117.871296 218 60ft 0kts
08-Jan-18 19:48 33.677255 -117.869331 29 60ft 17kts
08-Jan-18 19:49 33.681122 -117.867040 25 60ft 10kts
08-Jan-18 19:50 33.681215 -117.866475 101 60ft 0kts
08-Jan-18 19:51 33.681215 -117.866475 101 60ft 0kts
08-Jan-18 19:52 33.681215 -117.866475 101 60ft 0kts
08-Jan-18 19:53 33.681215 -117.866475 101 60ft 0kts
08-Jan-18 19:54 33.681215 -117.866475 101 60ft 0kts
08-Jan-18 19:55 33.678393 -117.866473 190 60ft 56kts
08-Jan-18 19:56 33.665517 -117.888061 267 948ft 103kts
08-Jan-18 19:57 33.655334 -117.914597 231 2005ft 101kts
08-Jan-18 19:58 33.639128 -117.945519 230 2395ft 101kts
08-Jan-18 19:59 33.625378 -117.973441 262 3424ft 99kts
08-Jan-18 20:00 33.634590 -118.007204 292 4023ft 130kts
08-Jan-18 20:01 33.647234 -118.048621 291 4019ft 131kts
08-Jan-18 20:02 33.659342 -118.089781 291 4018ft 129kts
08-Jan-18 20:03 33.675954 -118.127419 304 4021ft 127kts
08-Jan-18 20:04 33.699400 -118.157780 325 4024ft 123kts
08-Jan-18 20:05 33.725726 -118.183880 325 4026ft 123kts
08-Jan-18 20:06 33.753341 -118.207263 332 4028ft 121kts
08-Jan-18 20:07 33.780906 -118.230320 327 4030ft 121kts
08-Jan-18 20:08 33.807585 -118.254801 327 4034ft 120kts
08-Jan-18 20:09 33.834071 -118.278945 327 4009ft 118kts
08-Jan-18 20:10 33.859252 -118.304366 321 4013ft 118kts
08-Jan-18 20:11 33.883002 -118.328615 321 4014ft 109kts
08-Jan-18 20:12 33.906327 -118.351657 321 4014ft 108kts
08-Jan-18 20:13 33.929265 -118.375000 319 4012ft 107kts
08-Jan-18 20:14 33.952109 -118.400619 324 4009ft 118kts
08-Jan-18 20:16 33.676060 -117.871295 218 60ft 0kts
08-Jan-18 20:17 33.676060 -117.871295 218 60ft 0kts
08-Jan-18 20:18 33.676060 -117.871295 218 60ft 0kts
08-Jan-18 20:37 33.639170 -117.919147 240 2860ft 81kts
08-Jan-18 20:38 33.648234 -117.940276 315 3831ft 75kts
08-Jan-18 20:39 33.665206 -117.965892 310 4064ft 113kts
08-Jan-18 20:40 33.683410 -117.997135 308 4063ft 114kts
08-Jan-18 20:41 33.701148 -118.028959 306 4064ft 115kts
08-Jan-18 20:42 33.718791 -118.061075 308 4063ft 115kts
08-Jan-18 20:43 33.736335 -118.093165 307 4063ft 115kts
08-Jan-18 20:44 33.754012 -118.125564 307 4064ft 119kts
08-Jan-18 20:45 33.772344 -118.159131 306 4063ft 121kts
08-Jan-18 20:46 33.790818 -118.192823 305 4063ft 120kts
08-Jan-18 20:47 33.809032 -118.226519 306 4063ft 121kts
08-Jan-18 20:48 33.827416 -118.260354 306 4063ft 121kts
08-Jan-18 20:49 33.846994 -118.293375 322 4062ft 120kts
08-Jan-18 20:50 33.872402 -118.318949 323 4063ft 119kts
08-Jan-18 20:51 33.897893 -118.344443 323 4063ft 119kts
08-Jan-18 20:52 33.923260 -118.369782 322 4063ft 118kts
08-Jan-18 20:53 33.948593 -118.395071 323 4064ft 118kts
08-Jan-18 20:54 33.974059 -118.420603 323 4063ft 119kts
08-Jan-18 20:55 33.999473 -118.446000 324 4063ft 119kts
08-Jan-18 20:56 34.022892 -118.474270 310 4063ft 120kts
08-Jan-18 20:57 34.051340 -118.491864 334 4064ft 117kts
08-Jan-18 20:58 34.075704 -118.517505 302 4063ft 120kts
08-Jan-18 20:59 34.091637 -118.552631 302 4071ft 118kts
08-Jan-18 21:00 34.107472 -118.587808 302 4074ft 119kts
08-Jan-18 21:01 34.123517 -118.623406 302 4074ft 122kts
08-Jan-18 21:02 34.141068 -118.658192 330 4069ft 119kts
08-Jan-18 21:03 34.171415 -118.672876 342 4072ft 117kts
08-Jan-18 21:04 34.196887 -118.662577 57 4072ft 114kts
08-Jan-18 21:05 34.200790 -118.624225 87 4072ft 116kts
08-Jan-18 21:06 34.200059 -118.584971 87 4073ft 116kts
08-Jan-18 21:07 34.199374 -118.548505 86 3814ft 109kts
08-Jan-18 21:08 34.199576 -118.511062 88 3115ft 109kts
08-Jan-18 21:09 34.198741 -118.479869 85 2484ft 75kts
08-Jan-18 21:10 34.199247 -118.452411 97 2172ft 86kts
08-Jan-18 21:11 34.198475 -118.425153 90 1675ft 78kts
08-Jan-18 21:12 34.198170 -118.399175 86 1232ft 76kts
08-Jan-18 21:13 34.198014 -118.377602 81 920ft 54kts
08-Jan-18 21:14 34.197806 -118.362828 87 720ft 19kts
08-Jan-18 21:15 34.198526 -118.360375 357 717ft 0kts
08-Jan-18 21:16 34.198526 -118.360375 357 717ft 0kts
08-Jan-18 21:17 34.199193 -118.363261 305 724ft 12kts
08-Jan-18 21:18 34.199894 -118.364786 350 725ft 0kts

Navigation Log

Ident Type
Flight plan parsing failed, navigation log unavailable